Time;durP1;ratioP1;P1;durP2;ratioP2;P2;SDS_P1;SDS_P2;PMS_P1;PMS_P2;Temp;Humidity;BMP_temperature;BMP_pressure;BME280_temperature;BME280_humidity;BME280_pressure;Samples;Min_cycle;Max_cycle;Signal;HPM_P1;HPM_P2
2023/12/27 00:01:51;;;;;;;;;;;;;;;;;;5112486;28;19976;-44
2023/12/27 00:04:17;;;;;;;;;;;;;;;;;;5113131;28;19928;-41
2023/12/27 00:06:43;;;;;;;;;;;;;;;;;;5113192;28;20364;-41
2023/12/27 00:09:10;;;;;;;;;;;;;;;;;;5112654;28;19923;-41
2023/12/27 00:11:36;;;;;;;;;;;;;;;;;;5113226;28;20319;-42
2023/12/27 00:14:02;;;;;;;;;;;;;;;;;;5112833;28;20410;-41
2023/12/27 00:16:29;;;;;;;;;;;;;;;;;;5115962;28;20015;-43
2023/12/27 00:18:55;;;;;;;;;;;;;;;;;;5116962;28;19927;-41
2023/12/27 00:21:21;;;;;;;;;;;;;;;;;;5115984;28;19931;-43
2023/12/27 00:23:48;;;;;;;;;;;;;;;;;;5116449;28;19930;-41
2023/12/27 00:26:14;;;;;;;;;;;;;;;;;;5115071;28;19924;-44
2023/12/27 00:28:40;;;;;;;;;;;;;;;;;;5116873;27;19963;-43
2023/12/27 00:31:06;;;;;;;;;;;;;;;;;;5116489;27;19977;-42
2023/12/27 00:33:32;;;;;;;;;;;;;;;;;;5116196;27;20283;-42
2023/12/27 00:35:59;;;;;;;;;;;;;;;;;;5116563;27;19934;-42
2023/12/27 00:38:25;;;;;;;;;;;;;;;;;;5116272;28;20295;-41
2023/12/27 00:40:51;;;;;;;;;;;;;;;;;;5115814;28;19992;-43
2023/12/27 00:43:18;;;;;;;;;;;;;;;;;;5116124;28;19924;-41
2023/12/27 00:45:44;;;;;;;;;;;;;;;;;;5116040;28;19928;-41
2023/12/27 00:48:10;;;;;;;;;;;;;;;;;;5116061;28;20417;-42
2023/12/27 00:50:36;;;;;;;;;;;;;;;;;;5116265;28;19924;-43
2023/12/27 00:53:03;;;;;;;;;;;;;;;;;;5116012;28;19931;-42
2023/12/27 00:55:29;;;;;;;;;;;;;;;;;;5116160;28;19977;-41
2023/12/27 00:57:55;;;;;;;;;;;;;;;;;;5116315;28;20375;-42
2023/12/27 01:00:22;;;;;;;;;;;;;;;;;;5116028;28;20375;-41
2023/12/27 01:02:48;;;;;;;;;;;;;;;;;;5115967;28;19936;-41
2023/12/27 01:05:14;;;;;;;;;;;;;;;;;;5116116;28;19924;-42
2023/12/27 01:07:40;;;;;;;;;;;;;;;;;;5115612;28;19946;-43
2023/12/27 01:10:07;;;;;;;;;;;;;;;;;;5115542;28;19924;-41
2023/12/27 01:12:33;;;;;;;;;;;;;;;;;;5115704;27;19945;-42
2023/12/27 01:14:59;;;;;;;;;;;;;;;;;;5115343;28;19928;-41
2023/12/27 01:17:25;;;;;;;;;;;;;;;;;;5115778;28;19955;-41
2023/12/27 01:19:52;;;;;;;;;;;;;;;;;;5115911;28;19928;-41
2023/12/27 01:22:18;;;;;;;;;;;;;;;;;;5115399;28;19923;-41
2023/12/27 01:24:44;;;;;;;;;;;;;;;;;;5114977;28;19978;-41
2023/12/27 01:27:10;;;;;;;;;;;;;;;;;;5113887;28;20248;-41
2023/12/27 01:29:36;;;;;;;;;;;;;;;;;;5113896;28;20291;-42
2023/12/27 01:32:03;;;;;;;;;;;;;;;;;;5114257;28;19924;-44
2023/12/27 01:34:29;;;;;;;;;;;;;;;;;;5114311;28;19930;-42
2023/12/27 01:36:55;;;;;;;;;;;;;;;;;;5115249;27;19924;-41
2023/12/27 01:39:22;;;;;;;;;;;;;;;;;;5114559;28;19923;-41
2023/12/27 01:41:48;;;;;;;;;;;;;;;;;;5115123;28;19932;-42
2023/12/27 01:44:14;;;;;;;;;;;;;;;;;;5115385;28;19972;-42
2023/12/27 01:46:41;;;;;;;;;;;;;;;;;;5115124;27;19924;-41
2023/12/27 01:49:07;;;;;;;;;;;;;;;;;;5115290;28;19957;-42
2023/12/27 01:51:33;;;;;;;;;;;;;;;;;;5114801;28;19931;-43
2023/12/27 01:54:02;;;;;;;;;;;;;;;;;;5114882;28;19931;-43
2023/12/27 01:56:28;;;;;;;;;;;;;;;;;;5115063;28;19939;-43
2023/12/27 01:58:54;;;;;;;;;;;;;;;;;;5114640;28;19953;-41
2023/12/27 02:01:20;;;;;;;;;;;;;;;;;;5114203;28;19924;-43
2023/12/27 02:03:46;;;;;;;;;;;;;;;;;;5114907;28;19976;-42
2023/12/27 02:06:13;;;;;;;;;;;;;;;;;;5115020;28;20378;-41
2023/12/27 02:08:39;;;;;;;;;;;;;;;;;;5114619;28;19935;-40
2023/12/27 02:11:05;;;;;;;;;;;;;;;;;;5114440;28;19982;-42
2023/12/27 02:13:31;;;;;;;;;;;;;;;;;;5114252;28;19924;-43
2023/12/27 02:15:57;;;;;;;;;;;;;;;;;;5114068;28;20252;-41
2023/12/27 02:18:23;;;;;;;;;;;;;;;;;;5114759;28;20321;-42
2023/12/27 02:20:50;;;;;;;;;;;;;;;;;;5114653;28;20432;-42
2023/12/27 02:23:16;;;;;;;;;;;;;;;;;;5113986;28;19924;-41
2023/12/27 02:25:42;;;;;;;;;;;;;;;;;;5114397;28;20359;-44
2023/12/27 02:28:08;;;;;;;;;;;;;;;;;;5113812;28;19932;-42
2023/12/27 02:30:36;;;;;;;;;;;;;;;;;;5114305;28;19973;-41
2023/12/27 02:33:02;;;;;;;;;;;;;;;;;;5114303;28;19928;-42
2023/12/27 02:35:29;;;;;;;;;;;;;;;;;;5113932;28;19930;-42
2023/12/27 02:37:55;;;;;;;;;;;;;;;;;;5113095;28;19974;-44
2023/12/27 02:40:21;;;;;;;;;;;;;;;;;;5113800;28;20361;-43
2023/12/27 02:42:48;;;;;;;;;;;;;;;;;;5114286;28;19924;-45
2023/12/27 02:45:14;;;;;;;;;;;;;;;;;;5113877;28;20001;-42
2023/12/27 02:47:40;;;;;;;;;;;;;;;;;;5114212;28;19924;-41
2023/12/27 02:50:06;;;;;;;;;;;;;;;;;;5113916;28;19947;-44
2023/12/27 02:52:33;;;;;;;;;;;;;;;;;;5114212;28;19932;-43
2023/12/27 02:54:59;;;;;;;;;;;;;;;;;;5113765;28;20116;-43
2023/12/27 02:57:25;;;;;;;;;;;;;;;;;;5113486;28;19924;-42
2023/12/27 02:59:51;;;;;;;;;;;;;;;;;;5113828;28;19974;-42
2023/12/27 03:02:17;;;;;;;;;;;;;;;;;;5113793;28;19924;-43
2023/12/27 03:04:43;;;;;;;;;;;;;;;;;;5113632;28;19927;-45
2023/12/27 03:07:11;;;;;;;;;;;;;;;;;;5113862;28;19931;-42
2023/12/27 03:09:37;;;;;;;;;;;;;;;;;;5113369;28;19984;-41
2023/12/27 03:12:03;;;;;;;;;;;;;;;;;;5113750;28;19928;-42
2023/12/27 03:14:30;;;;;;;;;;;;;;;;;;5113558;28;19927;-42
2023/12/27 03:16:56;;;;;;;;;;;;;;;;;;5113469;28;19977;-41
2023/12/27 03:19:22;;;;;;;;;;;;;;;;;;5113834;28;19924;-42
2023/12/27 03:21:49;;;;;;;;;;;;;;;;;;5113756;28;20337;-41
2023/12/27 03:24:15;;;;;;;;;;;;;;;;;;5113600;28;19930;-42
2023/12/27 03:26:41;;;;;;;;;;;;;;;;;;5113083;28;19924;-43
2023/12/27 03:29:07;;;;;;;;;;;;;;;;;;5113163;28;19974;-43
2023/12/27 03:31:33;;;;;;;;;;;;;;;;;;5113044;28;19984;-42
2023/12/27 03:33:59;;;;;;;;;;;;;;;;;;5113613;28;19930;-41
2023/12/27 03:36:26;;;;;;;;;;;;;;;;;;5113257;28;20354;-43
2023/12/27 03:38:52;;;;;;;;;;;;;;;;;;5113567;28;19924;-44
2023/12/27 03:41:18;;;;;;;;;;;;;;;;;;5113056;28;20416;-42
2023/12/27 03:43:44;;;;;;;;;;;;;;;;;;5113525;28;19965;-42
2023/12/27 03:46:10;;;;;;;;;;;;;;;;;;5112975;28;19924;-42
2023/12/27 03:48:36;;;;;;;;;;;;;;;;;;5113424;28;19969;-41
2023/12/27 03:51:03;;;;;;;;;;;;;;;;;;5115891;28;19932;-41
2023/12/27 03:53:29;;;;;;;;;;;;;;;;;;5117504;28;20018;-44
2023/12/27 03:55:55;;;;;;;;;;;;;;;;;;5117227;28;19931;-44
2023/12/27 03:58:21;;;;;;;;;;;;;;;;;;5116768;28;19924;-42
2023/12/27 04:00:48;;;;;;;;;;;;;;;;;;5117289;28;19923;-42
2023/12/27 04:03:14;;;;;;;;;;;;;;;;;;5117361;28;20370;-41
2023/12/27 04:05:40;;;;;;;;;;;;;;;;;;5117104;28;19928;-42
2023/12/27 04:08:06;;;;;;;;;;;;;;;;;;5117272;28;19931;-41
2023/12/27 04:10:32;;;;;;;;;;;;;;;;;;5116737;28;19928;-42
2023/12/27 04:12:59;;;;;;;;;;;;;;;;;;5116515;27;19923;-43
2023/12/27 04:15:25;;;;;;;;;;;;;;;;;;5115906;28;20391;-41
2023/12/27 04:17:51;;;;;;;;;;;;;;;;;;5116681;27;19927;-41
2023/12/27 04:20:17;;;;;;;;;;;;;;;;;;5116565;27;19970;-41
2023/12/27 04:22:44;;;;;;;;;;;;;;;;;;5116419;28;19962;-42
2023/12/27 04:25:10;;;;;;;;;;;;;;;;;;5116373;28;19924;-41
2023/12/27 04:27:38;;;;;;;;;;;;;;;;;;5115591;28;19928;-42
2023/12/27 04:30:04;;;;;;;;;;;;;;;;;;5115960;28;19931;-42
2023/12/27 04:32:31;;;;;;;;;;;;;;;;;;5115715;28;19970;-42
2023/12/27 04:34:57;;;;;;;;;;;;;;;;;;5116231;28;20006;-42
2023/12/27 04:37:23;;;;;;;;;;;;;;;;;;5116061;28;19932;-42
2023/12/27 04:39:50;;;;;;;;;;;;;;;;;;5115873;28;19930;-41
2023/12/27 04:42:16;;;;;;;;;;;;;;;;;;5116646;28;19969;-41
2023/12/27 04:44:42;;;;;;;;;;;;;;;;;;5116265;28;19924;-42
2023/12/27 04:47:08;;;;;;;;;;;;;;;;;;5116539;28;19927;-44
2023/12/27 04:49:35;;;;;;;;;;;;;;;;;;5116319;28;20470;-43
2023/12/27 04:52:01;;;;;;;;;;;;;;;;;;5116187;28;19928;-42
2023/12/27 04:54:28;;;;;;;;;;;;;;;;;;5115579;28;19923;-42
2023/12/27 04:56:55;;;;;;;;;;;;;;;;;;5115547;28;19924;-43
2023/12/27 04:59:21;;;;;;;;;;;;;;;;;;5115215;28;19924;-42
2023/12/27 05:01:47;;;;;;;;;;;;;;;;;;5114949;28;19924;-43
2023/12/27 05:04:13;;;;;;;;;;;;;;;;;;5115724;28;19924;-42
2023/12/27 05:06:39;;;;;;;;;;;;;;;;;;5116042;28;19924;-42
2023/12/27 05:09:06;;;;;;;;;;;;;;;;;;5115346;28;19928;-42
2023/12/27 05:11:32;;;;;;;;;;;;;;;;;;5115875;28;19924;-42
2023/12/27 05:13:58;;;;;;;;;;;;;;;;;;5115803;27;20389;-45
2023/12/27 05:16:24;;;;;;;;;;;;;;;;;;5115529;28;19927;-43
2023/12/27 05:18:51;;;;;;;;;;;;;;;;;;5116081;28;20421;-42
2023/12/27 05:21:17;;;;;;;;;;;;;;;;;;5115838;28;19934;-43
2023/12/27 05:23:43;;;;;;;;;;;;;;;;;;5115341;28;20321;-43
2023/12/27 05:26:09;;;;;;;;;;;;;;;;;;5115647;27;20063;-43
2023/12/27 05:28:36;;;;;;;;;;;;;;;;;;5114891;28;20351;-42
2023/12/27 05:31:02;;;;;;;;;;;;;;;;;;5115321;28;19969;-42
2023/12/27 05:33:28;;;;;;;;;;;;;;;;;;5114781;28;20375;-42
2023/12/27 05:35:54;;;;;;;;;;;;;;;;;;5115508;28;19943;-42
2023/12/27 05:38:23;;;;;;;;;;;;;;;;;;5115447;28;20289;-43
2023/12/27 05:40:49;;;;;;;;;;;;;;;;;;5115154;28;20325;-42
2023/12/27 05:43:15;;;;;;;;;;;;;;;;;;5115430;28;19959;-41
2023/12/27 05:45:41;;;;;;;;;;;;;;;;;;5114466;28;20317;-41
2023/12/27 05:48:07;;;;;;;;;;;;;;;;;;5115505;27;19993;-43
2023/12/27 05:50:34;;;;;;;;;;;;;;;;;;5115173;28;19924;-41
2023/12/27 05:53:00;;;;;;;;;;;;;;;;;;5114720;28;19932;-41
2023/12/27 05:55:26;;;;;;;;;;;;;;;;;;5114747;28;20228;-43
2023/12/27 05:57:54;;;;;;;;;;;;;;;;;;5114085;28;21201;-43
2023/12/27 06:00:21;;;;;;;;;;;;;;;;;;5114836;28;19928;-42
2023/12/27 06:02:47;;;;;;;;;;;;;;;;;;5113249;28;19927;-43
2023/12/27 06:05:13;;;;;;;;;;;;;;;;;;5114982;28;20368;-42
2023/12/27 06:07:40;;;;;;;;;;;;;;;;;;5114905;27;19976;-41
2023/12/27 06:10:06;;;;;;;;;;;;;;;;;;5114660;28;19924;-43
2023/12/27 06:12:32;;;;;;;;;;;;;;;;;;5113789;28;19976;-43
2023/12/27 06:14:59;;;;;;;;;;;;;;;;;;5114506;28;19924;-46
2023/12/27 06:17:25;;;;;;;;;;;;;;;;;;5114626;28;20439;-42
2023/12/27 06:19:51;;;;;;;;;;;;;;;;;;5114808;27;19973;-42
2023/12/27 06:22:17;;;;;;;;;;;;;;;;;;5114483;28;19924;-42
2023/12/27 06:24:43;;;;;;;;;;;;;;;;;;5114113;28;19993;-41
2023/12/27 06:27:13;;;;;;;;;;;;;;;;;;5114355;28;19993;-45
2023/12/27 06:29:39;;;;;;;;;;;;;;;;;;5114030;28;19935;-43
2023/12/27 06:32:05;;;;;;;;;;;;;;;;;;5113760;28;19927;-43
2023/12/27 06:34:31;;;;;;;;;;;;;;;;;;5113308;28;19939;-43
2023/12/27 06:36:58;;;;;;;;;;;;;;;;;;5113293;27;19992;-45
2023/12/27 06:39:24;;;;;;;;;;;;;;;;;;5113095;28;19924;-41
2023/12/27 06:41:51;;;;;;;;;;;;;;;;;;5114211;28;19924;-41
2023/12/27 06:44:17;;;;;;;;;;;;;;;;;;5114213;28;20355;-41
2023/12/27 06:46:43;;;;;;;;;;;;;;;;;;5114023;28;19978;-44
2023/12/27 06:49:09;;;;;;;;;;;;;;;;;;5113564;28;19924;-43
2023/12/27 06:51:35;;;;;;;;;;;;;;;;;;5113954;28;20030;-42
2023/12/27 06:54:02;;;;;;;;;;;;;;;;;;5113608;28;20271;-40
2023/12/27 06:56:28;;;;;;;;;;;;;;;;;;5113927;28;19924;-43
2023/12/27 06:58:54;;;;;;;;;;;;;;;;;;5113904;28;19924;-42
2023/12/27 07:01:20;;;;;;;;;;;;;;;;;;5113906;28;19969;-44
2023/12/27 07:03:46;;;;;;;;;;;;;;;;;;5113234;28;20292;-44
2023/12/27 07:06:12;;;;;;;;;;;;;;;;;;5113911;28;19930;-43
2023/12/27 07:08:39;;;;;;;;;;;;;;;;;;5113844;28;19988;-43
2023/12/27 07:11:05;;;;;;;;;;;;;;;;;;5113723;28;20004;-42
2023/12/27 07:13:31;;;;;;;;;;;;;;;;;;5112988;28;19931;-43
2023/12/27 07:15:58;;;;;;;;;;;;;;;;;;5113614;28;20008;-42
2023/12/27 07:18:24;;;;;;;;;;;;;;;;;;5113686;28;19978;-43
2023/12/27 07:20:50;;;;;;;;;;;;;;;;;;5113552;28;20371;-41
2023/12/27 07:23:16;;;;;;;;;;;;;;;;;;5113531;28;19924;-44
2023/12/27 07:25:42;;;;;;;;;;;;;;;;;;5113268;28;20347;-42
2023/12/27 07:28:08;;;;;;;;;;;;;;;;;;5113652;28;19924;-42
2023/12/27 07:30:34;;;;;;;;;;;;;;;;;;5113541;28;19973;-41
2023/12/27 07:33:01;;;;;;;;;;;;;;;;;;5113020;28;19931;-43
2023/12/27 07:35:27;;;;;;;;;;;;;;;;;;5113311;28;19947;-41
2023/12/27 07:37:53;;;;;;;;;;;;;;;;;;5112670;28;19928;-43
2023/12/27 07:40:19;;;;;;;;;;;;;;;;;;5113414;28;19924;-41
2023/12/27 07:42:48;;;;;;;;;;;;;;;;;;5113434;28;19924;-41
2023/12/27 07:45:14;;;;;;;;;;;;;;;;;;5112759;28;19966;-43
2023/12/27 07:47:40;;;;;;;;;;;;;;;;;;5112950;28;19927;-43
2023/12/27 07:53:16;;;;;;;;;;;;;;;;;;5105942;28;20307;-42
2023/12/27 07:55:42;;;;;;;;;;;;;;;;;;5112832;28;19927;-42
2023/12/27 07:58:08;;;;;;;;;;;;;;;;;;5112690;28;20260;-43
2023/12/27 08:00:35;;;;;;;;;;;;;;;;;;5112816;28;19962;-44
2023/12/27 08:03:07;;;;;;;;;;;;;;;;;;5113182;28;20202;-42
2023/12/27 08:05:34;;;;;;;;;;;;;;;;;;5112416;28;19931;-42
2023/12/27 08:08:00;;;;;;;;;;;;;;;;;;5112685;28;20014;-45
2023/12/27 08:10:26;;;;;;;;;;;;;;;;;;5112069;28;19923;-42
2023/12/27 08:12:53;;;;;;;;;;;;;;;;;;5111946;28;19928;-42
2023/12/27 08:15:19;;;;;;;;;;;;;;;;;;5112729;28;19976;-42
2023/12/27 08:17:45;;;;;;;;;;;;;;;;;;5112985;28;19924;-43
2023/12/27 08:20:11;;;;;;;;;;;;;;;;;;5113083;28;19924;-42
2023/12/27 08:22:38;;;;;;;;;;;;;;;;;;5112876;28;19924;-44
2023/12/27 08:25:05;;;;;;;;;;;;;;;;;;5112652;28;19970;-41
2023/12/27 08:27:31;;;;;;;;;;;;;;;;;;5111429;28;19969;-42
2023/12/27 08:29:58;;;;;;;;;;;;;;;;;;5112257;28;19924;-43
2023/12/27 08:32:24;;;;;;;;;;;;;;;;;;5112514;28;19963;-43
2023/12/27 08:34:50;;;;;;;;;;;;;;;;;;5111667;28;19973;-42
2023/12/27 08:37:17;;;;;;;;;;;;;;;;;;5115546;28;19935;-43
2023/12/27 08:39:43;;;;;;;;;;;;;;;;;;5115257;28;19923;-42
2023/12/27 08:42:09;;;;;;;;;;;;;;;;;;5116501;28;19931;-43
2023/12/27 08:44:36;;;;;;;;;;;;;;;;;;5116359;28;19965;-42
2023/12/27 08:47:02;;;;;;;;;;;;;;;;;;5116469;28;20428;-43
2023/12/27 08:49:28;;;;;;;;;;;;;;;;;;5116353;28;19924;-42
2023/12/27 08:51:55;;;;;;;;;;;;;;;;;;5116340;28;19923;-44
2023/12/27 08:54:21;;;;;;;;;;;;;;;;;;5116291;28;19923;-44
2023/12/27 08:56:48;;;;;;;;;;;;;;;;;;5116544;28;19935;-42
2023/12/27 08:59:14;;;;;;;;;;;;;;;;;;5115769;28;19924;-43
2023/12/27 09:01:40;;;;;;;;;;;;;;;;;;5116060;28;19977;-41
2023/12/27 09:04:06;;;;;;;;;;;;;;;;;;5116399;28;20371;-43
2023/12/27 09:06:32;;;;;;;;;;;;;;;;;;5115554;28;20439;-42
2023/12/27 09:08:59;;;;;;;;;;;;;;;;;;5115795;28;19982;-42
2023/12/27 09:11:25;;;;;;;;;;;;;;;;;;5115768;28;20428;-42
2023/12/27 09:14:05;;;;;;;;;;;;;;;;;;5115700;28;19931;-42
2023/12/27 09:16:31;;;;;;;;;;;;;;;;;;5115579;28;19963;-42
2023/12/27 09:18:59;;;;;;;;;;;;;;;;;;5115829;28;19973;-42
2023/12/27 09:21:25;;;;;;;;;;;;;;;;;;5115861;28;19971;-43
2023/12/27 09:23:51;;;;;;;;;;;;;;;;;;5115929;28;20283;-42
2023/12/27 09:26:17;;;;;;;;;;;;;;;;;;5115731;28;20329;-43
2023/12/27 09:28:44;;;;;;;;;;;;;;;;;;5115915;28;19924;-41
2023/12/27 09:31:10;;;;;;;;;;;;;;;;;;5115646;28;19989;-41
2023/12/27 09:33:36;;;;;;;;;;;;;;;;;;5115448;28;19940;-40
2023/12/27 09:36:02;;;;;;;;;;;;;;;;;;5114791;27;19956;-44
2023/12/27 09:38:29;;;;;;;;;;;;;;;;;;5115150;28;19923;-43
2023/12/27 09:40:55;;;;;;;;;;;;;;;;;;5113472;28;20417;-43
2023/12/27 09:43:21;;;;;;;;;;;;;;;;;;5115135;28;19924;-42
2023/12/27 09:45:47;;;;;;;;;;;;;;;;;;5115221;28;20424;-42
2023/12/27 09:48:13;;;;;;;;;;;;;;;;;;5115039;28;20253;-42
2023/12/27 09:50:40;;;;;;;;;;;;;;;;;;5115073;28;19928;-43
2023/12/27 09:53:07;;;;;;;;;;;;;;;;;;5115308;28;19927;-42
2023/12/27 09:55:33;;;;;;;;;;;;;;;;;;5114928;28;19931;-42
2023/12/27 09:57:59;;;;;;;;;;;;;;;;;;5115166;28;19924;-41
2023/12/27 10:00:26;;;;;;;;;;;;;;;;;;5114903;28;20314;-42
2023/12/27 10:02:52;;;;;;;;;;;;;;;;;;5114776;28;19924;-42
2023/12/27 10:05:18;;;;;;;;;;;;;;;;;;5114897;28;20367;-43
2023/12/27 10:07:44;;;;;;;;;;;;;;;;;;5114484;27;19935;-41
2023/12/27 10:10:10;;;;;;;;;;;;;;;;;;5112359;28;19931;-44
2023/12/27 10:12:47;;;;;;;;;;;;;;;;;;5114853;28;19924;-42
2023/12/27 10:15:14;;;;;;;;;;;;;;;;;;5114241;28;19966;-44
2023/12/27 10:17:41;;;;;;;;;;;;;;;;;;5114056;28;19950;-42
2023/12/27 10:20:08;;;;;;;;;;;;;;;;;;5114660;28;19978;-41
2023/12/27 10:22:34;;;;;;;;;;;;;;;;;;5114846;28;19973;-43
2023/12/27 10:25:00;;;;;;;;;;;;;;;;;;5114722;28;19981;-42
2023/12/27 10:27:26;;;;;;;;;;;;;;;;;;5114455;28;19928;-42
2023/12/27 10:29:52;;;;;;;;;;;;;;;;;;5113904;28;19924;-44
2023/12/27 10:32:19;;;;;;;;;;;;;;;;;;5114280;28;19928;-41
2023/12/27 10:34:45;;;;;;;;;;;;;;;;;;5114314;28;19997;-44
2023/12/27 10:37:12;;;;;;;;;;;;;;;;;;5113620;28;19924;-43
2023/12/27 10:39:38;;;;;;;;;;;;;;;;;;5112326;28;20435;-42
2023/12/27 10:42:04;;;;;;;;;;;;;;;;;;5102911;28;19930;-44
2023/12/27 10:44:30;;;;;;;;;;;;;;;;;;5114153;28;20018;-40
2023/12/27 10:46:56;;;;;;;;;;;;;;;;;;5113503;28;20289;-42
2023/12/27 10:49:24;;;;;;;;;;;;;;;;;;5112757;28;19963;-41
2023/12/27 10:51:50;;;;;;;;;;;;;;;;;;5108924;28;19973;-41
2023/12/27 10:54:16;;;;;;;;;;;;;;;;;;5114146;28;19941;-42
2023/12/27 10:56:42;;;;;;;;;;;;;;;;;;5113366;28;20313;-43
2023/12/27 10:59:09;;;;;;;;;;;;;;;;;;5110651;28;19932;-43
2023/12/27 11:01:35;;;;;;;;;;;;;;;;;;5104022;28;19958;-41
2023/12/27 11:04:01;;;;;;;;;;;;;;;;;;5101246;28;19931;-43
2023/12/27 11:06:28;;;;;;;;;;;;;;;;;;5093585;28;20375;-42
2023/12/27 11:08:54;;;;;;;;;;;;;;;;;;5093411;28;19931;-42
2023/12/27 11:11:20;;;;;;;;;;;;;;;;;;5093117;28;19963;-41
2023/12/27 11:13:46;;;;;;;;;;;;;;;;;;5093294;28;19970;-43
2023/12/27 11:16:13;;;;;;;;;;;;;;;;;;5092927;28;19924;-42
2023/12/27 11:18:39;;;;;;;;;;;;;;;;;;5093480;28;19980;-43
2023/12/27 11:21:05;;;;;;;;;;;;;;;;;;5110503;28;19969;-43
2023/12/27 11:23:31;;;;;;;;;;;;;;;;;;5113692;28;19935;-44
2023/12/27 11:26:00;;;;;;;;;;;;;;;;;;5113622;28;19928;-43
2023/12/27 11:28:26;;;;;;;;;;;;;;;;;;5113509;28;19924;-42
2023/12/27 11:30:52;;;;;;;;;;;;;;;;;;5112914;28;19935;-42
2023/12/27 11:33:19;;;;;;;;;;;;;;;;;;5113812;28;20008;-44
2023/12/27 11:35:45;;;;;;;;;;;;;;;;;;5113406;28;19924;-44
2023/12/27 11:38:11;;;;;;;;;;;;;;;;;;5113407;28;20036;-43
2023/12/27 11:40:38;;;;;;;;;;;;;;;;;;5112646;28;19953;-41
2023/12/27 11:43:04;;;;;;;;;;;;;;;;;;5113254;28;19940;-40
2023/12/27 11:45:30;;;;;;;;;;;;;;;;;;5112918;28;19924;-42
2023/12/27 11:47:56;;;;;;;;;;;;;;;;;;5113358;28;20064;-41
2023/12/27 11:50:22;;;;;;;;;;;;;;;;;;5113459;28;19931;-41
2023/12/27 11:52:50;;;;;;;;;;;;;;;;;;5113646;28;19973;-42
2023/12/27 11:55:21;;;;;;;;;;;;;;;;;;5112818;28;19932;-43
2023/12/27 11:57:47;;;;;;;;;;;;;;;;;;5113238;28;20412;-43
2023/12/27 12:00:14;;;;;;;;;;;;;;;;;;5112963;28;19946;-41
2023/12/27 12:02:40;;;;;;;;;;;;;;;;;;5112663;28;19976;-41
2023/12/27 12:05:07;;;;;;;;;;;;;;;;;;5112848;28;19977;-41
2023/12/27 12:07:33;;;;;;;;;;;;;;;;;;5112633;28;19960;-44
2023/12/27 12:09:59;;;;;;;;;;;;;;;;;;5112563;28;19928;-42
2023/12/27 12:12:25;;;;;;;;;;;;;;;;;;5115964;28;19952;-41
2023/12/27 12:14:52;;;;;;;;;;;;;;;;;;5116343;28;19930;-44
2023/12/27 12:17:22;;;;;;;;;;;;;;;;;;5116437;28;20018;-41
2023/12/27 12:19:48;;;;;;;;;;;;;;;;;;5116784;28;20356;-44
2023/12/27 12:22:15;;;;;;;;;;;;;;;;;;5116808;28;20023;-42
2023/12/27 12:24:41;;;;;;;;;;;;;;;;;;5116353;28;19984;-42
2023/12/27 12:27:07;;;;;;;;;;;;;;;;;;5116846;28;20031;-42
2023/12/27 12:29:34;;;;;;;;;;;;;;;;;;5116678;27;20444;-41
2023/12/27 12:32:00;;;;;;;;;;;;;;;;;;5116237;28;19993;-41
2023/12/27 12:34:26;;;;;;;;;;;;;;;;;;5116560;27;19977;-41
2023/12/27 12:36:52;;;;;;;;;;;;;;;;;;5116554;28;19928;-43
2023/12/27 12:39:18;;;;;;;;;;;;;;;;;;5116424;28;19971;-41
2023/12/27 12:41:45;;;;;;;;;;;;;;;;;;5115980;28;19923;-44
2023/12/27 12:44:11;;;;;;;;;;;;;;;;;;5116758;28;20019;-42
2023/12/27 12:46:37;;;;;;;;;;;;;;;;;;5115928;28;20368;-44
2023/12/27 12:49:03;;;;;;;;;;;;;;;;;;5116491;28;19924;-42
2023/12/27 12:51:29;;;;;;;;;;;;;;;;;;5116392;28;19939;-43
2023/12/27 12:53:56;;;;;;;;;;;;;;;;;;5116269;28;19931;-43
2023/12/27 12:56:22;;;;;;;;;;;;;;;;;;5114466;27;19974;-47
2023/12/27 12:58:48;;;;;;;;;;;;;;;;;;5116477;28;20005;-43
2023/12/27 13:01:15;;;;;;;;;;;;;;;;;;5115916;28;19924;-41
2023/12/27 13:03:43;;;;;;;;;;;;;;;;;;5115895;28;19993;-41
2023/12/27 13:06:09;;;;;;;;;;;;;;;;;;5116226;28;19931;-41
2023/12/27 13:08:36;;;;;;;;;;;;;;;;;;5116185;28;19969;-43
2023/12/27 13:11:02;;;;;;;;;;;;;;;;;;5115717;28;19950;-41
2023/12/27 13:13:28;;;;;;;;;;;;;;;;;;5115906;28;19924;-41
2023/12/27 13:15:54;;;;;;;;;;;;;;;;;;5115614;28;20375;-43
2023/12/27 13:18:20;;;;;;;;;;;;;;;;;;5116000;28;19931;-42
2023/12/27 13:20:47;;;;;;;;;;;;;;;;;;5115659;28;19924;-42
2023/12/27 13:23:14;;;;;;;;;;;;;;;;;;5114884;28;19949;-42
2023/12/27 13:25:40;;;;;;;;;;;;;;;;;;5115215;28;19928;-41
2023/12/27 13:28:06;;;;;;;;;;;;;;;;;;5114898;28;19989;-42
2023/12/27 13:30:37;;;;;;;;;;;;;;;;;;5115047;28;20011;-44
2023/12/27 13:33:03;;;;;;;;;;;;;;;;;;5115203;28;20355;-42
2023/12/27 13:35:31;;;;;;;;;;;;;;;;;;5115001;28;19924;-41
2023/12/27 13:37:57;;;;;;;;;;;;;;;;;;5114817;28;20301;-41
2023/12/27 13:40:23;;;;;;;;;;;;;;;;;;5115269;28;20014;-42
2023/12/27 13:42:50;;;;;;;;;;;;;;;;;;5115122;28;20379;-43
2023/12/27 13:45:19;;;;;;;;;;;;;;;;;;5115390;28;19924;-42
2023/12/27 13:47:45;;;;;;;;;;;;;;;;;;5114799;28;19927;-42
2023/12/27 13:50:11;;;;;;;;;;;;;;;;;;5115123;28;19927;-42
2023/12/27 13:52:37;;;;;;;;;;;;;;;;;;5115283;28;20004;-44
2023/12/27 13:55:05;;;;;;;;;;;;;;;;;;5114933;28;19980;-43
2023/12/27 13:57:31;;;;;;;;;;;;;;;;;;5114544;28;19935;-43
2023/12/27 13:59:57;;;;;;;;;;;;;;;;;;5114925;28;20237;-41
2023/12/27 14:02:24;;;;;;;;;;;;;;;;;;5114860;28;19930;-41
2023/12/27 14:04:50;;;;;;;;;;;;;;;;;;5115078;28;20391;-41
2023/12/27 14:07:16;;;;;;;;;;;;;;;;;;5115116;28;19923;-43
2023/12/27 14:09:42;;;;;;;;;;;;;;;;;;5114691;28;20283;-41
2023/12/27 14:12:09;;;;;;;;;;;;;;;;;;5114942;28;19924;-42
2023/12/27 14:14:35;;;;;;;;;;;;;;;;;;5114681;28;19959;-40
2023/12/27 14:17:01;;;;;;;;;;;;;;;;;;5114745;28;19927;-42
2023/12/27 14:19:27;;;;;;;;;;;;;;;;;;5114459;28;19923;-42
2023/12/27 14:21:55;;;;;;;;;;;;;;;;;;5114575;28;19924;-41
2023/12/27 14:24:21;;;;;;;;;;;;;;;;;;5114635;28;19993;-42
2023/12/27 14:26:47;;;;;;;;;;;;;;;;;;5114560;28;19928;-43
2023/12/27 14:29:13;;;;;;;;;;;;;;;;;;5114531;27;20313;-41
2023/12/27 14:31:40;;;;;;;;;;;;;;;;;;5114578;28;19927;-43
2023/12/27 14:34:07;;;;;;;;;;;;;;;;;;5113602;28;20002;-41
2023/12/27 14:36:33;;;;;;;;;;;;;;;;;;5113755;28;19976;-44
2023/12/27 14:39:05;;;;;;;;;;;;;;;;;;5114122;28;20020;-40
2023/12/27 14:41:31;;;;;;;;;;;;;;;;;;5114174;28;19923;-40
2023/12/27 14:43:57;;;;;;;;;;;;;;;;;;5114029;28;19969;-43
2023/12/27 14:46:23;;;;;;;;;;;;;;;;;;5113126;28;19931;-40
2023/12/27 14:48:49;;;;;;;;;;;;;;;;;;5113087;28;19924;-42
2023/12/27 14:51:16;;;;;;;;;;;;;;;;;;5113323;28;19967;-43
2023/12/27 14:53:42;;;;;;;;;;;;;;;;;;5113685;28;20023;-41
2023/12/27 14:56:08;;;;;;;;;;;;;;;;;;5113509;28;19923;-42
2023/12/27 14:58:34;;;;;;;;;;;;;;;;;;5113959;28;19924;-42
2023/12/27 15:01:01;;;;;;;;;;;;;;;;;;5113409;28;20325;-41
2023/12/27 15:03:28;;;;;;;;;;;;;;;;;;5113914;28;19924;-42
2023/12/27 15:05:54;;;;;;;;;;;;;;;;;;5113856;28;20363;-41
2023/12/27 15:08:20;;;;;;;;;;;;;;;;;;5113734;28;19931;-41
2023/12/27 15:10:46;;;;;;;;;;;;;;;;;;5113622;28;19923;-41
2023/12/27 15:13:12;;;;;;;;;;;;;;;;;;5113613;28;19981;-42
2023/12/27 15:15:39;;;;;;;;;;;;;;;;;;5113330;28;19968;-41
2023/12/27 15:18:05;;;;;;;;;;;;;;;;;;5113330;28;20305;-40
2023/12/27 15:20:31;;;;;;;;;;;;;;;;;;5113527;28;19954;-40
2023/12/27 15:23:00;;;;;;;;;;;;;;;;;;5113678;28;19973;-41
2023/12/27 15:25:27;;;;;;;;;;;;;;;;;;5113642;28;19924;-41
2023/12/27 15:27:53;;;;;;;;;;;;;;;;;;5113706;28;19927;-42
2023/12/27 15:30:19;;;;;;;;;;;;;;;;;;5113329;28;19951;-41
2023/12/27 15:32:46;;;;;;;;;;;;;;;;;;5113094;28;19934;-41
2023/12/27 15:35:14;;;;;;;;;;;;;;;;;;5113299;28;19924;-42
2023/12/27 15:37:40;;;;;;;;;;;;;;;;;;5112536;28;19928;-43
2023/12/27 15:40:07;;;;;;;;;;;;;;;;;;5112920;28;19924;-42
2023/12/27 15:42:33;;;;;;;;;;;;;;;;;;5113092;28;20333;-42
2023/12/27 15:44:59;;;;;;;;;;;;;;;;;;5113291;28;19935;-42
2023/12/27 15:47:25;;;;;;;;;;;;;;;;;;5117126;28;19924;-43
2023/12/27 15:49:52;;;;;;;;;;;;;;;;;;5117071;28;19924;-41
2023/12/27 15:52:18;;;;;;;;;;;;;;;;;;5117137;28;20014;-41
2023/12/27 15:54:44;;;;;;;;;;;;;;;;;;5117273;27;20283;-42
2023/12/27 15:57:10;;;;;;;;;;;;;;;;;;5117528;28;19931;-43
2023/12/27 15:59:36;;;;;;;;;;;;;;;;;;5117363;28;19924;-42
2023/12/27 16:02:04;;;;;;;;;;;;;;;;;;5117120;28;19992;-42
2023/12/27 16:04:30;;;;;;;;;;;;;;;;;;5117540;27;19977;-42
2023/12/27 16:06:57;;;;;;;;;;;;;;;;;;5117442;28;19924;-41
2023/12/27 16:09:23;;;;;;;;;;;;;;;;;;5116697;28;19928;-42
2023/12/27 16:11:50;;;;;;;;;;;;;;;;;;5116959;28;19924;-43
2023/12/27 16:14:16;;;;;;;;;;;;;;;;;;5116414;28;19931;-40
2023/12/27 16:16:42;;;;;;;;;;;;;;;;;;5116659;28;19924;-41
2023/12/27 16:19:08;;;;;;;;;;;;;;;;;;5116890;28;19981;-41
2023/12/27 16:21:35;;;;;;;;;;;;;;;;;;5117089;27;19930;-41
2023/12/27 16:24:01;;;;;;;;;;;;;;;;;;5116985;28;19924;-42
2023/12/27 16:26:27;;;;;;;;;;;;;;;;;;5116963;28;19928;-42
2023/12/27 16:28:54;;;;;;;;;;;;;;;;;;5116912;28;19931;-42
2023/12/27 16:31:20;;;;;;;;;;;;;;;;;;5117083;27;19984;-41
2023/12/27 16:33:46;;;;;;;;;;;;;;;;;;5116901;28;19963;-41
2023/12/27 16:36:12;;;;;;;;;;;;;;;;;;5116834;27;20371;-41
2023/12/27 16:38:40;;;;;;;;;;;;;;;;;;5116545;28;19931;-41
2023/12/27 16:41:07;;;;;;;;;;;;;;;;;;5116147;28;19972;-42
2023/12/27 16:43:35;;;;;;;;;;;;;;;;;;5116391;28;20359;-41